createdAt,value
2018-08-09T00:00:09.143Z,8.43
2018-08-09T00:02:43.697Z,8.00
2018-08-09T00:05:19.234Z,9.00
2018-08-09T00:07:54.413Z,8.43
2018-08-09T00:10:30.938Z,5.80
2018-08-09T00:13:06.174Z,6.40
2018-08-09T00:15:45.580Z,6.27
2018-08-09T00:18:21.782Z,7.17
2018-08-09T00:20:57.334Z,6.33
2018-08-09T00:23:31.986Z,7.63
2018-08-09T00:26:07.221Z,6.23
2018-08-09T00:28:42.814Z,6.83
2018-08-09T00:31:19.018Z,8.23
2018-08-09T00:33:57.942Z,6.43
2018-08-09T00:36:34.006Z,8.23
2018-08-09T00:39:11.590Z,7.77
2018-08-09T00:41:47.034Z,8.27
2018-08-09T00:44:22.086Z,5.70
2018-08-09T00:46:57.088Z,8.20
2018-08-09T00:49:34.090Z,8.57
2018-08-09T00:52:09.110Z,8.23
2018-08-09T00:54:44.903Z,10.23
2018-08-09T00:57:20.912Z,7.10
2018-08-09T00:59:56.150Z,8.10
2018-08-09T01:02:30.833Z,9.80
2018-08-09T01:05:06.118Z,7.37
2018-08-09T01:07:41.697Z,7.70
2018-08-09T01:10:16.782Z,8.07
2018-08-09T01:12:52.142Z,8.43
2018-08-09T01:15:28.098Z,11.93
2018-08-09T01:18:04.531Z,8.27
2018-08-09T01:20:39.874Z,8.40
2018-08-09T01:23:14.398Z,7.13
2018-08-09T01:25:51.124Z,6.90
2018-08-09T01:28:26.791Z,9.07
2018-08-09T01:31:01.620Z,7.77
2018-08-09T01:33:38.663Z,8.83
2018-08-09T01:36:14.428Z,6.73
2018-08-09T01:38:50.210Z,10.00
2018-08-09T01:41:26.190Z,11.33
2018-08-09T01:44:04.211Z,8.00
2018-08-09T01:46:39.232Z,8.63
2018-08-09T01:49:14.742Z,6.43
2018-08-09T01:51:49.445Z,11.80
2018-08-09T01:54:25.278Z,11.67
2018-08-09T01:57:04.762Z,11.40
2018-08-09T01:59:39.449Z,9.90
2018-08-09T02:02:14.794Z,9.87
2018-08-09T02:04:49.546Z,9.37
2018-08-09T02:07:25.211Z,10.00
2018-08-09T02:10:00.297Z,9.10
2018-08-09T02:12:35.926Z,9.27
2018-08-09T02:15:10.686Z,9.67
2018-08-09T02:17:46.263Z,9.50
2018-08-09T02:20:22.286Z,8.00
2018-08-09T02:22:58.930Z,10.57
2018-08-09T02:25:34.230Z,12.80
2018-08-09T02:30:51.483Z,11.53
2018-08-09T02:33:27.007Z,11.83
2018-08-09T02:36:02.142Z,9.40
2018-08-09T02:38:37.074Z,9.63
2018-08-09T02:41:17.367Z,9.63
2018-08-09T02:43:53.174Z,8.07
2018-08-09T02:46:28.102Z,8.20
2018-08-09T02:49:05.171Z,11.93
2018-08-09T02:51:40.383Z,10.37
2018-08-09T02:54:15.442Z,9.07
2018-08-09T02:56:51.710Z,11.93
2018-08-09T02:59:31.451Z,11.17
2018-08-09T03:02:07.231Z,9.80
2018-08-09T03:04:42.374Z,12.40
2018-08-09T03:07:18.449Z,10.33
2018-08-09T03:09:53.211Z,12.30
2018-08-09T03:12:29.088Z,10.23
2018-08-09T03:15:04.963Z,12.27
2018-08-09T03:17:39.523Z,10.97
2018-08-09T03:20:16.390Z,6.83
2018-08-09T03:22:51.326Z,9.03
2018-08-09T03:25:26.946Z,8.17
2018-08-09T03:28:02.927Z,7.30
2018-08-09T03:30:38.642Z,12.67
2018-08-09T03:33:13.853Z,8.73
2018-08-09T03:35:49.997Z,6.67
2018-08-09T03:38:26.198Z,9.90
2018-08-09T03:41:02.811Z,12.70
2018-08-09T03:43:38.118Z,10.27
2018-08-09T03:46:13.010Z,10.00
2018-08-09T03:48:47.911Z,8.87
2018-08-09T03:51:23.599Z,8.20
2018-08-09T03:53:59.925Z,10.60
2018-08-09T03:56:35.914Z,10.97
2018-08-09T03:59:11.021Z,12.20
2018-08-09T04:01:47.951Z,11.20
2018-08-09T04:04:23.841Z,11.50
2018-08-09T04:06:59.053Z,8.83
2018-08-09T04:09:35.029Z,12.10
2018-08-09T04:12:10.863Z,16.13
2018-08-09T04:14:46.782Z,8.67
2018-08-09T04:17:23.903Z,9.13
2018-08-09T04:19:59.178Z,11.10
2018-08-09T04:22:36.434Z,10.80
2018-08-09T04:25:12.282Z,8.73
2018-08-09T04:27:47.317Z,7.40
2018-08-09T04:30:23.078Z,11.13
2018-08-09T04:32:59.203Z,10.57
2018-08-09T04:38:18.019Z,12.80
2018-08-09T04:40:55.092Z,9.63
2018-08-09T04:43:31.362Z,10.00
2018-08-09T04:46:06.926Z,11.53
2018-08-09T04:48:42.788Z,11.07
2018-08-09T04:51:17.902Z,10.03
2018-08-09T04:53:54.183Z,10.67
2018-08-09T04:56:30.246Z,11.37
2018-08-09T04:59:06.479Z,9.90
2018-08-09T05:01:41.262Z,12.40
2018-08-09T05:04:16.445Z,8.37
2018-08-09T05:06:52.042Z,10.97
2018-08-09T05:09:27.112Z,15.10
2018-08-09T05:12:02.620Z,12.27
2018-08-09T05:14:38.246Z,11.07
2018-08-09T05:17:13.686Z,14.77
2018-08-09T05:19:50.110Z,9.27
2018-08-09T05:22:26.858Z,16.03
2018-08-09T05:25:02.338Z,12.43
2018-08-09T05:27:37.628Z,10.90
2018-08-09T05:30:14.075Z,12.50
2018-08-09T05:32:50.414Z,11.63
2018-08-09T05:35:26.492Z,13.73
2018-08-09T05:38:02.079Z,12.33
2018-08-09T05:40:37.846Z,11.77
2018-08-09T05:43:15.098Z,11.83
2018-08-09T05:45:51.122Z,11.73
2018-08-09T05:48:27.086Z,11.30
2018-08-09T05:51:02.504Z,11.43
2018-08-09T05:53:38.190Z,12.60
2018-08-09T05:56:12.806Z,11.17
2018-08-09T05:58:48.106Z,11.30
2018-08-09T06:01:23.382Z,11.73
2018-08-09T06:03:59.519Z,9.93
2018-08-09T06:06:34.361Z,11.27
2018-08-09T06:09:12.174Z,9.00
2018-08-09T06:14:23.020Z,12.50
2018-08-09T06:16:57.871Z,11.37
2018-08-09T06:19:34.227Z,11.23
2018-08-09T06:22:10.039Z,14.70
2018-08-09T06:24:45.000Z,13.00
2018-08-09T06:27:21.346Z,11.70
2018-08-09T06:29:57.127Z,12.83
2018-08-09T06:32:33.046Z,10.80
2018-08-09T06:35:09.450Z,11.37
2018-08-09T06:37:44.396Z,11.17
2018-08-09T06:40:20.737Z,12.53
2018-08-09T06:42:56.214Z,12.17
2018-08-09T06:45:32.115Z,9.80
2018-08-09T06:48:08.359Z,10.93
2018-08-09T06:50:44.227Z,9.00
2018-08-09T06:53:19.903Z,12.83
2018-08-09T06:55:55.568Z,12.00
2018-08-09T06:58:31.605Z,10.80
2018-08-09T07:01:07.804Z,11.83
2018-08-09T07:03:43.230Z,10.80
2018-08-09T07:06:18.079Z,12.30
2018-08-09T07:08:53.262Z,13.70
2018-08-09T07:11:28.822Z,11.93
2018-08-09T07:14:05.071Z,10.27
2018-08-09T07:16:41.402Z,9.23
2018-08-09T07:19:16.506Z,9.60
2018-08-09T07:21:51.769Z,7.50
2018-08-09T07:24:27.070Z,6.13
2018-08-09T07:27:02.779Z,9.63
2018-08-09T07:29:38.287Z,7.77
2018-08-09T07:32:14.298Z,8.53
2018-08-09T07:34:50.618Z,9.30
2018-08-09T07:37:26.002Z,6.33
2018-08-09T07:40:01.157Z,10.67
2018-08-09T07:42:36.286Z,10.20
2018-08-09T07:45:13.147Z,10.33
2018-08-09T07:47:50.012Z,10.53
2018-08-09T07:50:25.995Z,13.53
2018-08-09T07:53:01.792Z,10.50
2018-08-09T07:55:36.894Z,12.00
2018-08-09T07:58:11.846Z,10.00
2018-08-09T08:00:47.804Z,12.87
2018-08-09T08:03:24.509Z,10.23
2018-08-09T08:06:00.106Z,11.17
2018-08-09T08:08:35.690Z,9.10
2018-08-09T08:11:11.223Z,9.43
2018-08-09T08:13:48.638Z,8.13
2018-08-09T08:16:23.903Z,8.90
2018-08-09T08:18:59.142Z,7.90
2018-08-09T08:21:35.127Z,11.57
2018-08-09T08:24:14.959Z,8.97
2018-08-09T08:26:50.606Z,13.90
2018-08-09T08:29:26.711Z,7.87
2018-08-09T08:32:02.901Z,9.83
2018-08-09T08:34:38.404Z,11.67
2018-08-09T08:37:13.225Z,10.43
2018-08-09T08:39:48.195Z,9.97
2018-08-09T08:42:23.779Z,12.90
2018-08-09T08:44:59.546Z,7.83
2018-08-09T08:47:34.858Z,9.47
2018-08-09T08:50:15.015Z,17.97
2018-08-09T08:52:50.318Z,14.33
2018-08-09T08:55:25.225Z,12.63
2018-08-09T08:58:00.818Z,13.53
2018-08-09T09:00:36.272Z,11.10
2018-08-09T09:03:17.332Z,10.10
2018-08-09T09:05:52.806Z,14.53
2018-08-09T09:08:28.471Z,15.60
2018-08-09T09:11:04.806Z,10.53
2018-08-09T09:13:41.183Z,15.87
2018-08-09T09:16:17.139Z,12.57
2018-08-09T09:18:52.602Z,10.90
2018-08-09T09:21:38.019Z,11.73
2018-08-09T09:24:13.080Z,16.17
2018-08-09T09:29:25.254Z,10.90
2018-08-09T09:32:01.927Z,12.10
2018-08-09T09:34:38.094Z,10.83
2018-08-09T09:37:13.206Z,9.87
2018-08-09T09:39:48.170Z,9.57
2018-08-09T09:42:23.294Z,16.17
2018-08-09T09:44:58.862Z,12.70
2018-08-09T09:47:34.486Z,9.67
2018-08-09T09:50:11.054Z,9.67
2018-08-09T09:52:45.930Z,11.93
2018-08-09T09:55:21.726Z,12.07
2018-08-09T09:57:56.250Z,10.13
2018-08-09T10:00:38.908Z,10.63
2018-08-09T10:03:15.166Z,10.03
2018-08-09T10:05:50.231Z,13.50
2018-08-09T10:08:25.470Z,12.73
2018-08-09T10:11:01.378Z,12.13
2018-08-09T10:13:36.802Z,12.23
2018-08-09T10:16:11.670Z,12.83
2018-08-09T10:18:47.190Z,18.00
2018-08-09T10:21:23.190Z,11.67
2018-08-09T10:23:59.655Z,12.93
2018-08-09T10:26:34.878Z,12.17
2018-08-09T10:29:10.911Z,12.23
2018-08-09T10:31:47.135Z,15.07
2018-08-09T10:34:25.150Z,15.03
2018-08-09T10:37:00.210Z,13.23
2018-08-09T10:39:35.919Z,9.67
2018-08-09T10:42:11.467Z,15.60
2018-08-09T10:44:47.290Z,18.00
2018-08-09T10:47:22.998Z,15.77
2018-08-09T10:49:59.242Z,10.33
2018-08-09T10:52:35.067Z,12.00
2018-08-09T10:55:10.015Z,14.40
2018-08-09T10:57:47.807Z,16.00
2018-08-09T11:00:23.894Z,11.43
2018-08-09T11:02:59.758Z,11.97
2018-08-09T11:05:34.558Z,9.00
2018-08-09T11:08:11.399Z,11.40
2018-08-09T11:10:47.650Z,12.23
2018-08-09T11:13:24.138Z,9.20
2018-08-09T11:15:58.806Z,12.30
2018-08-09T11:18:35.141Z,13.47
2018-08-09T11:21:09.965Z,10.63
2018-08-09T11:23:46.076Z,11.10
2018-08-09T11:26:22.674Z,12.53
2018-08-09T11:28:57.932Z,11.37
2018-08-09T11:31:33.276Z,16.13
2018-08-09T11:34:09.663Z,11.73
2018-08-09T11:36:45.682Z,13.70
2018-08-09T11:39:22.458Z,12.70
2018-08-09T11:41:58.050Z,14.33
2018-08-09T11:44:34.015Z,14.00
2018-08-09T11:47:09.510Z,9.03
2018-08-09T11:49:44.210Z,13.27
2018-08-09T11:52:19.034Z,12.83
2018-08-09T11:54:54.934Z,12.20
2018-08-09T11:57:29.839Z,10.50
2018-08-09T12:00:07.782Z,9.33
2018-08-09T12:02:44.070Z,12.50
2018-08-09T12:05:20.139Z,13.23
2018-08-09T12:07:56.630Z,12.07
2018-08-09T12:10:31.772Z,14.10
2018-08-09T12:13:08.519Z,13.87
2018-08-09T12:15:44.232Z,9.47
2018-08-09T12:25:17.795Z,10.10
2018-08-09T12:27:53.733Z,12.20
2018-08-09T12:30:29.325Z,15.50
2018-08-09T12:33:04.557Z,11.13
2018-08-09T12:35:40.782Z,9.90
2018-08-09T12:38:15.814Z,10.70
2018-08-09T12:40:50.742Z,11.13
2018-08-09T12:43:26.050Z,13.50
2018-08-09T12:46:01.674Z,11.27
2018-08-09T12:48:37.594Z,14.40
2018-08-09T12:51:12.418Z,10.13
2018-08-09T12:53:47.634Z,14.73
2018-08-09T12:56:23.914Z,13.13
2018-08-09T12:58:58.898Z,8.17
2018-08-09T13:01:34.553Z,8.90
2018-08-09T13:04:09.998Z,8.17
2018-08-09T13:06:45.426Z,11.60
2018-08-09T13:09:21.474Z,15.67
2018-08-09T13:11:56.959Z,16.47
2018-08-09T13:14:31.894Z,15.07
2018-08-09T13:17:07.320Z,14.17
2018-08-09T13:19:43.663Z,20.17
2018-08-09T13:22:18.874Z,12.60
2018-08-09T13:24:55.426Z,14.30
2018-08-09T13:27:30.751Z,12.87
2018-08-09T13:30:09.119Z,11.20
2018-08-09T13:32:45.822Z,11.67
2018-08-09T13:35:21.258Z,12.00
2018-08-09T13:37:56.887Z,16.27
2018-08-09T13:40:31.994Z,13.47
2018-08-09T13:43:07.927Z,15.27
2018-08-09T13:45:42.519Z,11.93
2018-08-09T13:48:17.949Z,14.77
2018-08-09T13:50:53.329Z,13.60
2018-08-09T13:53:28.690Z,9.20
2018-08-09T13:56:04.598Z,12.57
2018-08-09T13:58:39.939Z,9.77
2018-08-09T14:01:17.322Z,8.27
2018-08-09T14:03:57.390Z,8.87
2018-08-09T14:06:34.927Z,11.00
2018-08-09T14:09:11.326Z,10.40
2018-08-09T14:11:46.708Z,7.57
2018-08-09T14:14:23.510Z,6.53
2018-08-09T14:16:58.666Z,5.97
2018-08-09T14:19:33.478Z,7.27
2018-08-09T14:22:09.753Z,7.53
2018-08-09T14:24:45.122Z,8.30
2018-08-09T14:27:20.247Z,5.97
2018-08-09T14:29:56.414Z,14.23
2018-08-09T14:32:31.651Z,8.67
2018-08-09T14:35:08.642Z,4.93
2018-08-09T14:37:44.181Z,11.43
2018-08-09T14:40:21.898Z,8.07
2018-08-09T14:42:57.186Z,6.77
2018-08-09T14:45:36.623Z,6.40
2018-08-09T14:48:12.646Z,8.17
2018-08-09T14:50:47.586Z,7.23
2018-08-09T14:53:23.877Z,6.87
2018-08-09T14:55:59.626Z,7.63
2018-08-09T14:58:34.272Z,11.23
2018-08-09T15:01:10.950Z,8.27
2018-08-09T15:03:46.938Z,7.13
2018-08-09T15:06:22.219Z,8.97
2018-08-09T15:08:57.507Z,11.20
2018-08-09T15:11:33.005Z,7.80
2018-08-09T15:14:08.651Z,9.00
2018-08-09T15:16:43.932Z,7.03
2018-08-09T15:19:23.575Z,10.23
2018-08-09T15:21:59.591Z,10.83
2018-08-09T15:24:35.841Z,9.43
2018-08-09T15:27:11.351Z,10.13
2018-08-09T15:29:46.902Z,9.33
2018-08-09T15:32:22.063Z,9.00
2018-08-09T15:34:57.241Z,10.10
2018-08-09T15:37:32.731Z,8.37
2018-08-09T15:40:13.010Z,9.50
2018-08-09T15:42:49.127Z,9.63
2018-08-09T15:45:24.102Z,10.50
2018-08-09T15:47:59.641Z,7.10
2018-08-09T15:50:34.269Z,9.23
2018-08-09T15:53:10.683Z,6.60
2018-08-09T15:55:45.907Z,7.80
2018-08-09T15:58:20.714Z,8.47
2018-08-09T16:00:56.168Z,7.80
2018-08-09T16:03:31.863Z,7.77
2018-08-09T16:06:08.271Z,8.17
2018-08-09T16:08:43.962Z,8.50
2018-08-09T16:11:20.125Z,7.93
2018-08-09T16:13:55.449Z,7.87
2018-08-09T16:16:31.737Z,7.47
2018-08-09T16:19:08.346Z,7.37
2018-08-09T16:21:45.882Z,6.20
2018-08-09T16:24:21.702Z,15.03
2018-08-09T16:26:56.834Z,8.97
2018-08-09T16:29:32.810Z,5.73
2018-08-09T16:32:08.167Z,8.23
2018-08-09T16:34:43.730Z,5.43
2018-08-09T16:37:20.115Z,5.33
2018-08-09T16:39:54.823Z,7.73
2018-08-09T16:42:30.317Z,5.73
2018-08-09T16:45:07.795Z,9.80
2018-08-09T16:47:43.897Z,7.30
2018-08-09T16:50:21.399Z,8.00
2018-08-09T16:52:57.578Z,8.73
2018-08-09T16:55:33.046Z,6.93
2018-08-09T16:58:10.668Z,7.43
2018-08-09T17:00:46.295Z,7.20
2018-08-09T17:03:21.595Z,7.80
2018-08-09T17:05:56.558Z,9.73
2018-08-09T17:08:31.490Z,5.57
2018-08-09T17:11:07.066Z,8.10
2018-08-09T17:13:42.699Z,7.43
2018-08-09T17:16:18.638Z,7.47
2018-08-09T17:18:54.270Z,6.57
2018-08-09T17:21:29.754Z,7.07
2018-08-09T17:24:06.639Z,6.90
2018-08-09T17:26:41.949Z,8.83
2018-08-09T17:29:17.391Z,9.87
2018-08-09T17:31:53.870Z,8.63
2018-08-09T17:34:29.810Z,15.90
2018-08-09T17:37:04.672Z,8.97
2018-08-09T17:39:40.788Z,7.63
2018-08-09T17:42:16.659Z,10.33
2018-08-09T17:44:52.666Z,10.20
2018-08-09T17:47:28.427Z,20.87
2018-08-09T17:50:05.023Z,10.13
2018-08-09T17:52:41.214Z,5.93
2018-08-09T17:55:17.326Z,3.77
2018-08-09T17:57:54.032Z,4.53
2018-08-09T18:00:30.839Z,6.27
2018-08-09T18:03:07.334Z,7.83
2018-08-09T18:05:42.882Z,5.50
2018-08-09T18:08:18.646Z,5.73
2018-08-09T18:10:55.352Z,9.00
2018-08-09T18:13:30.634Z,4.93
2018-08-09T18:16:05.810Z,5.23
2018-08-09T18:18:41.333Z,4.83
2018-08-09T18:21:18.370Z,5.53
2018-08-09T18:23:57.902Z,3.80
2018-08-09T18:26:37.066Z,4.93
2018-08-09T18:29:12.763Z,4.60
2018-08-09T18:31:48.427Z,4.13
2018-08-09T18:34:24.516Z,6.00
2018-08-09T18:37:01.819Z,5.13
2018-08-09T18:39:36.919Z,4.27
2018-08-09T18:42:12.126Z,5.73
2018-08-09T18:44:47.613Z,4.70
2018-08-09T18:47:24.530Z,6.30
2018-08-09T18:49:59.863Z,8.37
2018-08-09T18:52:35.843Z,7.70
2018-08-09T18:55:15.556Z,6.70
2018-08-09T18:57:52.174Z,6.33
2018-08-09T19:00:32.238Z,7.63
2018-08-09T19:03:08.405Z,6.40
2018-08-09T19:05:44.955Z,7.17
2018-08-09T19:08:25.083Z,5.00
2018-08-09T19:11:00.803Z,4.97
2018-08-09T19:13:36.511Z,5.47
2018-08-09T19:16:11.513Z,6.50
2018-08-09T19:18:46.763Z,5.37
2018-08-09T19:21:22.527Z,4.37
2018-08-09T19:23:58.402Z,4.60
2018-08-09T19:26:35.346Z,4.57
2018-08-09T19:29:10.250Z,5.87
2018-08-09T19:31:45.471Z,3.07
2018-08-09T19:34:19.964Z,5.00
2018-08-09T19:36:54.777Z,4.33
2018-08-09T19:39:30.455Z,3.63
2018-08-09T19:42:05.658Z,4.47
2018-08-09T19:44:40.918Z,5.30
2018-08-09T19:47:16.202Z,4.63
2018-08-09T19:49:51.211Z,4.07
2018-08-09T19:52:26.319Z,4.03
2018-08-09T19:55:01.134Z,2.83
2018-08-09T19:57:36.758Z,6.57
2018-08-09T20:00:16.472Z,5.73
2018-08-09T20:02:51.733Z,6.03
2018-08-09T20:05:28.798Z,3.23
2018-08-09T20:08:04.259Z,4.80
2018-08-09T20:10:39.554Z,4.13
2018-08-09T20:13:15.505Z,3.57
2018-08-09T20:15:51.694Z,6.67
2018-08-09T20:18:27.547Z,4.10
2018-08-09T20:21:04.282Z,4.53
2018-08-09T20:23:40.462Z,3.17
2018-08-09T20:26:15.858Z,2.83
2018-08-09T20:28:50.766Z,4.27
2018-08-09T20:31:27.461Z,4.90
2018-08-09T20:34:02.799Z,2.83
2018-08-09T20:36:38.670Z,3.10
2018-08-09T20:39:15.203Z,3.30
2018-08-09T20:41:50.450Z,6.13
2018-08-09T20:44:25.452Z,3.67
2018-08-09T20:47:01.621Z,3.23
2018-08-09T20:49:37.105Z,8.77
2018-08-09T20:52:13.793Z,5.87
2018-08-09T20:54:49.142Z,3.60
2018-08-09T20:57:24.746Z,4.13
2018-08-09T21:00:00.695Z,2.60
2018-08-09T21:02:35.573Z,5.23
2018-08-09T21:05:15.978Z,3.80
2018-08-09T21:07:53.222Z,7.20
2018-08-09T21:10:29.628Z,9.10
2018-08-09T21:13:04.478Z,3.53
2018-08-09T21:15:39.748Z,3.33
2018-08-09T21:18:15.252Z,3.00
2018-08-09T21:20:50.170Z,4.93
2018-08-09T21:23:24.920Z,4.73
2018-08-09T21:26:00.550Z,2.40
2018-08-09T21:28:35.422Z,5.93
2018-08-09T21:31:10.202Z,3.10
2018-08-09T21:33:45.277Z,2.77
2018-08-09T21:36:21.314Z,3.13
2018-08-09T21:38:56.869Z,6.17
2018-08-09T21:41:32.254Z,2.87
2018-08-09T21:44:08.362Z,3.27
2018-08-09T21:46:45.297Z,1.97
2018-08-09T21:49:21.614Z,3.30
2018-08-09T21:51:57.273Z,2.40
2018-08-09T21:54:32.601Z,4.60
2018-08-09T21:57:07.141Z,3.60
2018-08-09T21:59:42.730Z,1.97
2018-08-09T22:02:19.534Z,4.17
2018-08-09T22:04:59.786Z,2.33
2018-08-09T22:07:39.994Z,3.47
2018-08-09T22:10:21.815Z,5.00
2018-08-09T22:13:03.202Z,2.87
2018-08-09T22:15:43.614Z,2.20
2018-08-09T22:18:24.326Z,1.60
2018-08-09T22:21:04.670Z,2.87
2018-08-09T22:23:40.166Z,2.63
2018-08-09T22:26:14.683Z,3.73
2018-08-09T22:28:50.266Z,1.60
2018-08-09T22:31:25.619Z,2.23
2018-08-09T22:34:00.779Z,1.83
2018-08-09T22:36:36.714Z,1.60
2018-08-09T22:39:11.878Z,4.10
2018-08-09T22:41:47.358Z,2.90
2018-08-09T22:44:23.034Z,2.27
2018-08-09T22:46:57.354Z,5.00
2018-08-09T22:49:32.205Z,3.23
2018-08-09T22:52:07.170Z,1.70
2018-08-09T22:54:42.726Z,3.10
2018-08-09T22:57:18.582Z,2.40
2018-08-09T22:59:53.923Z,2.00
2018-08-09T23:02:29.178Z,1.50
2018-08-09T23:05:04.423Z,2.70
2018-08-09T23:07:40.046Z,4.20
2018-08-09T23:10:14.876Z,2.03
2018-08-09T23:12:49.386Z,3.57
2018-08-09T23:15:25.294Z,2.27
2018-08-09T23:18:00.527Z,3.37
2018-08-09T23:20:35.698Z,3.03
2018-08-09T23:23:11.742Z,2.90
2018-08-09T23:25:47.264Z,1.80
2018-08-09T23:28:22.423Z,4.13
2018-08-09T23:30:58.104Z,2.70
2018-08-09T23:33:34.438Z,3.03
2018-08-09T23:36:09.533Z,3.33
2018-08-09T23:38:44.960Z,8.07
2018-08-09T23:41:19.698Z,2.37
2018-08-09T23:43:54.612Z,5.50
2018-08-09T23:46:29.725Z,3.73
2018-08-09T23:49:05.606Z,3.47
2018-08-09T23:51:41.445Z,2.43
2018-08-09T23:54:16.026Z,3.73
2018-08-09T23:56:51.430Z,3.57
2018-08-09T23:59:27.318Z,5.17
